sensor_id;sensor_type;location;lat;lon;timestamp;temperature;humidity
35244;DHT22;37916;52.160;21.066;2022-08-21T00:07:51;22.50;67.90
35244;DHT22;37916;52.160;21.066;2022-08-21T00:17:53;22.30;68.60
35244;DHT22;37916;52.160;21.066;2022-08-21T00:27:54;22.20;69.10
35244;DHT22;37916;52.160;21.066;2022-08-21T00:37:56;22.10;69.60
35244;DHT22;37916;52.160;21.066;2022-08-21T00:47:57;21.90;69.90
35244;DHT22;37916;52.160;21.066;2022-08-21T00:57:59;21.70;70.60
35244;DHT22;37916;52.160;21.066;2022-08-21T01:08:00;21.50;70.60
35244;DHT22;37916;52.160;21.066;2022-08-21T01:18:03;21.40;71.30
35244;DHT22;37916;52.160;21.066;2022-08-21T01:28:12;21.20;71.50
35244;DHT22;37916;52.160;21.066;2022-08-21T01:38:13;21.00;72.10
35244;DHT22;37916;52.160;21.066;2022-08-21T01:48:14;20.90;72.20
35244;DHT22;37916;52.160;21.066;2022-08-21T01:58:14;20.80;72.40
35244;DHT22;37916;52.160;21.066;2022-08-21T02:08:15;20.70;72.40
35244;DHT22;37916;52.160;21.066;2022-08-21T02:18:15;20.70;73.20
35244;DHT22;37916;52.160;21.066;2022-08-21T02:28:16;20.50;73.30
35244;DHT22;37916;52.160;21.066;2022-08-21T02:38:24;20.40;74.40
35244;DHT22;37916;52.160;21.066;2022-08-21T02:48:29;20.20;74.20
35244;DHT22;37916;52.160;21.066;2022-08-21T02:58:36;20.20;74.50
35244;DHT22;37916;52.160;21.066;2022-08-21T03:08:39;20.10;74.10
35244;DHT22;37916;52.160;21.066;2022-08-21T03:18:39;20.00;74.50
35244;DHT22;37916;52.160;21.066;2022-08-21T03:28:40;20.10;75.20
35244;DHT22;37916;52.160;21.066;2022-08-21T03:38:40;19.90;75.50
35244;DHT22;37916;52.160;21.066;2022-08-21T03:48:41;19.90;75.60
35244;DHT22;37916;52.160;21.066;2022-08-21T03:58:42;19.90;75.40
35244;DHT22;37916;52.160;21.066;2022-08-21T04:08:42;20.00;75.50
35244;DHT22;37916;52.160;21.066;2022-08-21T04:18:43;20.10;74.90
35244;DHT22;37916;52.160;21.066;2022-08-21T04:28:43;20.10;75.30
35244;DHT22;37916;52.160;21.066;2022-08-21T04:38:44;20.30;74.50
35244;DHT22;37916;52.160;21.066;2022-08-21T04:48:45;20.60;73.50
35244;DHT22;37916;52.160;21.066;2022-08-21T04:58:46;20.60;73.50
35244;DHT22;37916;52.160;21.066;2022-08-21T05:08:49;21.30;71.90
35244;DHT22;37916;52.160;21.066;2022-08-21T05:18:52;21.70;71.20
35244;DHT22;37916;52.160;21.066;2022-08-21T05:28:52;22.50;69.30
35244;DHT22;37916;52.160;21.066;2022-08-21T05:38:53;22.70;68.80
35244;DHT22;37916;52.160;21.066;2022-08-21T05:48:54;23.10;68.30
35244;DHT22;37916;52.160;21.066;2022-08-21T05:58:55;24.60;65.10
35244;DHT22;37916;52.160;21.066;2022-08-21T06:08:55;24.70;64.80
35244;DHT22;37916;52.160;21.066;2022-08-21T06:18:56;24.40;65.00
35244;DHT22;37916;52.160;21.066;2022-08-21T06:28:57;25.40;63.40
35244;DHT22;37916;52.160;21.066;2022-08-21T06:38:58;26.00;61.40
35244;DHT22;37916;52.160;21.066;2022-08-21T06:48:58;26.40;60.20
35244;DHT22;37916;52.160;21.066;2022-08-21T06:58:59;26.40;59.00
35244;DHT22;37916;52.160;21.066;2022-08-21T07:09:00;27.50;58.60
35244;DHT22;37916;52.160;21.066;2022-08-21T07:19:01;28.60;56.60
35244;DHT22;37916;52.160;21.066;2022-08-21T07:29:02;29.90;53.40
35244;DHT22;37916;52.160;21.066;2022-08-21T07:39:03;31.00;53.40
35244;DHT22;37916;52.160;21.066;2022-08-21T07:49:03;31.30;49.20
35244;DHT22;37916;52.160;21.066;2022-08-21T07:59:05;30.40;50.80
35244;DHT22;37916;52.160;21.066;2022-08-21T08:09:05;29.80;50.90
35244;DHT22;37916;52.160;21.066;2022-08-21T08:19:06;30.10;50.00
35244;DHT22;37916;52.160;21.066;2022-08-21T08:29:07;30.90;49.70
35244;DHT22;37916;52.160;21.066;2022-08-21T08:39:07;30.50;49.60
35244;DHT22;37916;52.160;21.066;2022-08-21T09:09:34;29.30;50.20
35244;DHT22;37916;52.160;21.066;2022-08-21T09:20:08;28.90;50.60
35244;DHT22;37916;52.160;21.066;2022-08-21T09:30:12;28.60;50.60
35244;DHT22;37916;52.160;21.066;2022-08-21T09:50:36;29.00;48.00
35244;DHT22;37916;52.160;21.066;2022-08-21T10:00:37;28.70;48.20
35244;DHT22;37916;52.160;21.066;2022-08-21T10:10:38;28.90;48.00
35244;DHT22;37916;52.160;21.066;2022-08-21T10:21:14;28.00;50.30
35244;DHT22;37916;52.160;21.066;2022-08-21T11:02:04;28.60;47.00
35244;DHT22;37916;52.160;21.066;2022-08-21T11:22:43;28.60;48.20
35244;DHT22;37916;52.160;21.066;2022-08-21T11:43:40;29.10;47.10
35244;DHT22;37916;52.160;21.066;2022-08-21T11:53:55;28.90;47.00
35244;DHT22;37916;52.160;21.066;2022-08-21T12:04:03;28.70;48.30
35244;DHT22;37916;52.160;21.066;2022-08-21T12:24:18;28.20;49.10
35244;DHT22;37916;52.160;21.066;2022-08-21T12:34:21;28.70;47.70
35244;DHT22;37916;52.160;21.066;2022-08-21T12:44:45;29.20;46.50
35244;DHT22;37916;52.160;21.066;2022-08-21T13:16:09;28.90;47.50
35244;DHT22;37916;52.160;21.066;2022-08-21T13:37:22;28.30;49.20
35244;DHT22;37916;52.160;21.066;2022-08-21T13:47:34;28.40;49.40
35244;DHT22;37916;52.160;21.066;2022-08-21T13:57:37;28.20;49.40
35244;DHT22;37916;52.160;21.066;2022-08-21T14:28:40;27.60;50.90
35244;DHT22;37916;52.160;21.066;2022-08-21T14:48:57;27.60;50.50
35244;DHT22;37916;52.160;21.066;2022-08-21T14:59:03;27.70;49.90
35244;DHT22;37916;52.160;21.066;2022-08-21T15:09:05;27.70;49.40
35244;DHT22;37916;52.160;21.066;2022-08-21T15:19:17;27.60;50.40
35244;DHT22;37916;52.160;21.066;2022-08-21T15:29:25;27.30;50.60
35244;DHT22;37916;52.160;21.066;2022-08-21T15:39:27;27.30;50.20
35244;DHT22;37916;52.160;21.066;2022-08-21T15:49:28;27.30;50.20
35244;DHT22;37916;52.160;21.066;2022-08-21T16:31:37;26.00;57.80
35244;DHT22;37916;52.160;21.066;2022-08-21T16:41:40;25.90;58.00
35244;DHT22;37916;52.160;21.066;2022-08-21T16:51:41;25.70;58.30
35244;DHT22;37916;52.160;21.066;2022-08-21T17:01:43;25.50;59.00
35244;DHT22;37916;52.160;21.066;2022-08-21T17:11:46;25.30;59.80
35244;DHT22;37916;52.160;21.066;2022-08-21T17:21:49;25.00;61.00
35244;DHT22;37916;52.160;21.066;2022-08-21T17:31:50;24.70;61.40
35244;DHT22;37916;52.160;21.066;2022-08-21T17:41:51;24.50;62.10
35244;DHT22;37916;52.160;21.066;2022-08-21T17:51:53;24.30;62.50
35244;DHT22;37916;52.160;21.066;2022-08-21T18:22:57;23.80;63.90
35244;DHT22;37916;52.160;21.066;2022-08-21T18:32:59;23.70;64.20
35244;DHT22;37916;52.160;21.066;2022-08-21T18:43:00;23.50;64.80
35244;DHT22;37916;52.160;21.066;2022-08-21T18:53:03;23.40;65.10
35244;DHT22;37916;52.160;21.066;2022-08-21T19:03:06;23.20;65.70
35244;DHT22;37916;52.160;21.066;2022-08-21T19:13:09;22.90;66.60
35244;DHT22;37916;52.160;21.066;2022-08-21T19:34:39;22.70;67.50
35244;DHT22;37916;52.160;21.066;2022-08-21T19:44:46;22.70;67.40
35244;DHT22;37916;52.160;21.066;2022-08-21T19:54:50;22.60;68.00
35244;DHT22;37916;52.160;21.066;2022-08-21T20:04:51;22.40;67.60
35244;DHT22;37916;52.160;21.066;2022-08-21T20:14:52;22.20;68.10
35244;DHT22;37916;52.160;21.066;2022-08-21T20:24:56;22.00;68.80
35244;DHT22;37916;52.160;21.066;2022-08-21T20:34:56;21.80;69.50
35244;DHT22;37916;52.160;21.066;2022-08-21T20:44:57;21.70;69.30
35244;DHT22;37916;52.160;21.066;2022-08-21T20:55:07;21.50;69.60
35244;DHT22;37916;52.160;21.066;2022-08-21T21:05:23;21.40;69.70
35244;DHT22;37916;52.160;21.066;2022-08-21T21:15:28;21.20;69.90
35244;DHT22;37916;52.160;21.066;2022-08-21T21:25:38;21.10;70.70
35244;DHT22;37916;52.160;21.066;2022-08-21T21:35:44;21.00;70.90
35244;DHT22;37916;52.160;21.066;2022-08-21T21:46:35;20.70;71.50
35244;DHT22;37916;52.160;21.066;2022-08-21T21:56:48;20.50;72.00
35244;DHT22;37916;52.160;21.066;2022-08-21T22:06:59;20.30;73.90
35244;DHT22;37916;52.160;21.066;2022-08-21T22:27:32;20.10;73.30
35244;DHT22;37916;52.160;21.066;2022-08-21T22:37:46;20.10;74.60
35244;DHT22;37916;52.160;21.066;2022-08-21T22:47:47;20.00;73.50
35244;DHT22;37916;52.160;21.066;2022-08-21T22:58:06;20.00;73.60
35244;DHT22;37916;52.160;21.066;2022-08-21T23:49:31;19.70;73.70
